Terminal Aerodrome Forecast
Issued by NWS Binghamton, NY

Home | Current Version | Previous Version | Text Only | Print | Product List | Glossary On
Versions: 1 2 3 4 5 6 7 8 9 10 11 12 13 14 15 16 17
000
FTUS41 KBGM 291915 AAC
TAFAVP
TAF AMD
KAVP 291915Z 2919/3018 22010KT P6SM BKN050
     FM300200 21004KT P6SM -SHRA OVC080
     FM300500 VRB04KT 4SM -SHRA BR OVC020
     FM301300 23004KT P6SM -SHRA OVC025
     FM301500 23005KT P6SM OVC050=

USA.gov is the U.S. government's official web portal to all federal, state and local government web resources and services.